Airfield :
LOGIN :

Register | Disclaimer

   EN    FR    IT 

 










Legend :    VFR   Marginal VFR   IFR   Intensive IFR   Very Intensive IFR
Visi :
Ceiling :
>= 8 km
>= 3000ft
5 to 8 km
1000 to 3000 ft
1500m to 5 km
500 to 1000 ft
800 to 1500m
200 to 500 ft
< 800m
< 200 ft
Symbols :   Thunderstorms  Fog  Heavy snow  Heavy precipitations  Wind > 20 kt
SIGMETs :     Misc.  Thunderstorms  Icing  Turbulence  Mountain Waves  Volcanic Ashes







- Airport Elevation : 465 ft
- IATA code : OMR


LROD - Oradea International

CURRENT METAR :
  • 122300Z AUTO 34004KT 4200 BR FEW016/// BKN080/// 01/00 Q1020

EXPIRED METARs :
  • 122230Z AUTO 33004KT 5000 BR SCT016/// BKN034/// BKN041/// 01/01 Q1020
  • 122200Z AUTO 34004KT 5000 BR FEW005/// SCT040/// BKN080/// 01/01 Q1020
  • 122130Z AUTO 32004KT 4400 BR FEW005/// BKN040/// OVC075/// 01/01 Q1020
  • 122100Z AUTO 34002KT 5000 BR FEW006/// BKN037/// BKN050/// 01/01 Q1020
  • 122030Z AUTO 36003KT 4900 BR FEW005/// BKN048/// BKN080/// 01/01 Q1020

TAF TAF LROD
Valid from the 12 at 18:00 until the 13 at 03:00 UTC


121700Z 1218/1303 VRB04KT 5000 BR BKN010
TEMPO 1218/1221 1500 BR BKN005 OVC015
No reported NOTAMs for that airfield.



MET'MAP, your aeronautical weather chart ! - Copyright ORBIFLY December 2007 - Disclaimer

ORBIFLY MET'MAP TEAM :

Programming & Development : Alexandra Zaïnal
Concept & Development : Baudouin d'Aumeries
Co-Development & Prog : Marc-Olivier Méhu
Technical & hardware support : Manuel Goepfert

Contact : metmap@orbifly.com




SOURCES & CREDITS :

   NOAA